createdAt,value
2023-04-24T00:01:03.813Z,10.86
2023-04-24T00:03:31.095Z,10.96
2023-04-24T00:05:57.915Z,10.92
2023-04-24T00:08:24.873Z,10.93
2023-04-24T00:10:53.601Z,10.93
2023-04-24T00:13:20.324Z,10.64
2023-04-24T00:15:48.329Z,10.80
2023-04-24T00:18:14.918Z,10.41
2023-04-24T00:20:41.752Z,10.76
2023-04-24T00:23:08.372Z,10.80
2023-04-24T00:25:34.984Z,10.91
2023-04-24T00:28:01.928Z,10.62
2023-04-24T00:30:29.473Z,10.94
2023-04-24T00:32:56.080Z,10.67
2023-04-24T00:35:24.520Z,10.74
2023-04-24T00:37:52.352Z,10.85
2023-04-24T00:40:19.134Z,10.86
2023-04-24T00:42:46.326Z,11.02
2023-04-24T00:45:13.147Z,10.90
2023-04-24T00:47:40.101Z,10.88
2023-04-24T00:50:07.729Z,10.89
2023-04-24T00:52:35.182Z,10.91
2023-04-24T00:55:01.847Z,10.99
2023-04-24T00:57:29.036Z,10.83
2023-04-24T00:59:55.721Z,11.01
2023-04-24T01:02:24.212Z,10.75
2023-04-24T01:04:52.196Z,10.68
2023-04-24T01:07:21.971Z,10.62
2023-04-24T01:09:50.015Z,10.83
2023-04-24T01:12:16.647Z,10.86
2023-04-24T01:14:45.663Z,10.49
2023-04-24T01:17:12.745Z,10.28
2023-04-24T01:19:39.591Z,10.46
2023-04-24T01:22:12.785Z,10.80
2023-04-24T01:24:43.973Z,10.63
2023-04-24T01:27:13.201Z,10.61
2023-04-24T01:29:40.533Z,10.67
2023-04-24T01:32:08.313Z,10.32
2023-04-24T01:34:35.491Z,10.16
2023-04-24T01:37:02.335Z,10.22
2023-04-24T01:39:29.660Z,10.36
2023-04-24T01:41:57.252Z,9.99
2023-04-24T01:44:24.698Z,10.33
2023-04-24T01:46:51.861Z,10.20
2023-04-24T01:49:18.747Z,10.24
2023-04-24T01:51:46.036Z,10.31
2023-04-24T01:54:13.175Z,10.18
2023-04-24T01:56:44.225Z,10.23
2023-04-24T01:59:14.132Z,9.06
2023-04-24T02:01:40.908Z,10.14
2023-04-24T02:04:08.676Z,9.99
2023-04-24T02:06:36.286Z,9.78
2023-04-24T02:09:04.329Z,10.02
2023-04-24T02:11:31.169Z,10.14
2023-04-24T02:13:59.202Z,10.08
2023-04-24T02:16:27.127Z,10.06
2023-04-24T02:18:53.806Z,9.84
2023-04-24T02:21:20.459Z,9.92
2023-04-24T02:23:47.121Z,9.61
2023-04-24T02:26:14.013Z,9.92
2023-04-24T02:28:40.703Z,9.52
2023-04-24T02:31:07.543Z,9.64
2023-04-24T02:33:34.299Z,9.79
2023-04-24T02:36:02.892Z,9.91
2023-04-24T02:38:30.401Z,9.10
2023-04-24T02:40:57.003Z,9.90
2023-04-24T02:43:23.555Z,9.81
2023-04-24T02:45:50.658Z,9.63
2023-04-24T02:48:18.049Z,9.85
2023-04-24T02:50:45.087Z,9.73
2023-04-24T02:53:11.639Z,9.84
2023-04-24T02:55:38.279Z,9.67
2023-04-24T02:58:05.056Z,9.79
2023-04-24T03:00:31.608Z,9.30
2023-04-24T03:02:58.431Z,9.47
2023-04-24T03:05:25.396Z,9.52
2023-04-24T03:07:53.609Z,9.17
2023-04-24T03:10:23.497Z,9.73
2023-04-24T03:12:50.349Z,9.73
2023-04-24T03:15:18.883Z,9.71
2023-04-24T03:17:45.571Z,9.47
2023-04-24T03:20:13.138Z,9.33
2023-04-24T03:22:39.946Z,9.50
2023-04-24T03:25:10.280Z,9.59
2023-04-24T03:27:37.361Z,9.54
2023-04-24T03:30:32.503Z,9.70
2023-04-24T03:33:01.071Z,9.60
2023-04-24T03:35:31.197Z,9.41
2023-04-24T03:38:01.619Z,9.66
2023-04-24T03:40:46.922Z,9.69
2023-04-24T03:43:45.619Z,9.70
2023-04-24T03:46:13.107Z,9.25
2023-04-24T03:48:44.758Z,9.58
2023-04-24T03:51:11.886Z,9.64
2023-04-24T03:53:42.754Z,9.71
2023-04-24T03:56:11.277Z,9.67
2023-04-24T03:58:38.353Z,9.67
2023-04-24T04:01:06.595Z,9.63
2023-04-24T04:03:55.340Z,9.62
2023-04-24T04:06:29.499Z,9.57
2023-04-24T04:08:58.171Z,9.67
2023-04-24T04:11:25.263Z,9.54
2023-04-24T04:13:52.064Z,9.64
2023-04-24T04:16:21.381Z,9.75
2023-04-24T04:18:50.794Z,9.65
2023-04-24T04:21:17.754Z,9.54
2023-04-24T04:23:45.037Z,9.56
2023-04-24T04:26:22.073Z,9.71
2023-04-24T04:29:09.303Z,9.60
2023-04-24T04:31:41.993Z,9.63
2023-04-24T04:34:13.612Z,9.69
2023-04-24T04:36:43.957Z,9.66
2023-04-24T04:39:23.844Z,9.51
2023-04-24T04:42:01.435Z,9.68
2023-04-24T04:44:37.154Z,9.55
2023-04-24T04:47:09.758Z,9.70
2023-04-24T04:49:39.638Z,9.67
2023-04-24T04:52:10.968Z,9.76
2023-04-24T04:54:38.115Z,9.63
2023-04-24T04:57:04.707Z,9.61
2023-04-24T04:59:36.098Z,9.08
2023-04-24T05:02:07.275Z,9.44
2023-04-24T05:04:34.270Z,9.54
2023-04-24T05:07:01.190Z,9.50
2023-04-24T05:09:30.602Z,9.38
2023-04-24T05:12:03.300Z,9.44
2023-04-24T05:14:34.051Z,9.48
2023-04-24T05:17:01.186Z,9.32
2023-04-24T05:19:27.941Z,9.32
2023-04-24T05:21:54.710Z,9.42
2023-04-24T05:24:21.346Z,9.42
2023-04-24T05:27:26.409Z,9.29
2023-04-24T05:29:53.238Z,9.21
2023-04-24T05:32:19.887Z,9.31
2023-04-24T05:34:46.557Z,9.22
2023-04-24T05:37:14.462Z,9.32
2023-04-24T05:39:42.823Z,9.32
2023-04-24T05:42:09.642Z,9.42
2023-04-24T05:44:36.191Z,9.34
2023-04-24T05:47:03.032Z,9.34
2023-04-24T05:49:29.688Z,9.40
2023-04-24T05:51:58.462Z,9.35
2023-04-24T05:54:25.067Z,9.39
2023-04-24T05:56:52.461Z,9.40
2023-04-24T05:59:29.462Z,9.45
2023-04-24T06:01:57.894Z,9.48
2023-04-24T06:04:25.938Z,9.50
2023-04-24T06:06:56.734Z,9.44
2023-04-24T06:09:23.835Z,9.49
2023-04-24T06:11:51.454Z,9.58
2023-04-24T06:14:18.293Z,9.50
2023-04-24T06:17:03.557Z,9.58
2023-04-24T06:19:36.155Z,9.56
2023-04-24T06:22:03.659Z,9.58
2023-04-24T06:24:30.371Z,9.59
2023-04-24T06:26:59.935Z,9.46
2023-04-24T06:29:26.603Z,9.45
2023-04-24T06:31:53.387Z,9.53
2023-04-24T06:34:20.161Z,8.92
2023-04-24T06:36:47.973Z,9.36
2023-04-24T06:39:14.711Z,9.35
2023-04-24T06:41:41.342Z,9.31
2023-04-24T06:44:11.419Z,9.30
2023-04-24T06:46:39.780Z,9.30
2023-04-24T06:49:07.772Z,8.87
2023-04-24T06:51:34.451Z,9.24
2023-04-24T06:54:01.255Z,9.27
2023-04-24T06:56:29.781Z,9.50
2023-04-24T06:58:56.389Z,9.47
2023-04-24T07:01:23.033Z,9.39
2023-04-24T07:03:49.798Z,9.48
2023-04-24T07:06:17.700Z,9.77
2023-04-24T07:08:44.628Z,9.54
2023-04-24T07:11:11.266Z,9.63
2023-04-24T07:13:42.616Z,9.69
2023-04-24T07:16:09.848Z,9.63
2023-04-24T07:18:37.495Z,9.61
2023-04-24T07:21:04.154Z,9.39
2023-04-24T07:23:31.707Z,9.34
2023-04-24T07:25:58.566Z,8.85
2023-04-24T07:28:25.723Z,9.59
2023-04-24T07:30:54.829Z,9.46
2023-04-24T07:33:21.560Z,9.36
2023-04-24T07:35:50.472Z,9.49
2023-04-24T07:38:17.155Z,9.52
2023-04-24T07:40:43.807Z,9.36
2023-04-24T07:43:10.753Z,9.53
2023-04-24T07:45:38.609Z,9.27
2023-04-24T07:48:05.732Z,9.44
2023-04-24T07:50:32.471Z,9.12
2023-04-24T07:52:59.102Z,9.41
2023-04-24T07:55:28.364Z,9.35
2023-04-24T07:57:55.092Z,9.46
2023-04-24T08:00:22.788Z,9.04
2023-04-24T08:02:49.563Z,9.08
2023-04-24T08:05:16.467Z,9.21
2023-04-24T08:07:43.735Z,9.35
2023-04-24T08:10:14.329Z,9.38
2023-04-24T08:12:41.320Z,8.86
2023-04-24T08:15:08.677Z,9.28
2023-04-24T08:17:36.405Z,8.79
2023-04-24T08:20:06.012Z,9.01
2023-04-24T08:22:32.744Z,8.68
2023-04-24T08:25:01.058Z,9.20
2023-04-24T08:27:27.869Z,8.82
2023-04-24T08:29:55.150Z,9.10
2023-04-24T08:32:21.789Z,9.07
2023-04-24T08:34:49.661Z,8.94
2023-04-24T08:37:17.606Z,9.03
2023-04-24T08:39:44.428Z,8.89
2023-04-24T08:42:12.548Z,9.12
2023-04-24T08:44:39.489Z,9.25
2023-04-24T08:47:06.268Z,8.95
2023-04-24T08:49:34.464Z,9.23
2023-04-24T08:52:02.540Z,9.35
2023-04-24T08:54:29.870Z,8.87
2023-04-24T08:57:04.472Z,9.27
2023-04-24T08:59:32.302Z,9.16
2023-04-24T09:01:59.053Z,8.00
2023-04-24T09:04:26.493Z,9.36
2023-04-24T09:06:57.259Z,9.35
2023-04-24T09:09:26.698Z,8.73
2023-04-24T09:11:56.321Z,8.84
2023-04-24T09:14:24.597Z,9.05
2023-04-24T09:16:51.849Z,9.26
2023-04-24T09:19:18.893Z,9.22
2023-04-24T09:21:48.702Z,9.26
2023-04-24T09:24:18.755Z,9.20
2023-04-24T09:26:46.082Z,9.31
2023-04-24T09:29:17.829Z,9.34
2023-04-24T09:31:46.185Z,9.64
2023-04-24T09:34:13.039Z,9.41
2023-04-24T09:36:42.518Z,10.05
2023-04-24T09:39:17.531Z,10.27
2023-04-24T09:42:01.915Z,10.47
2023-04-24T09:44:29.449Z,9.97
2023-04-24T09:46:57.230Z,10.32
2023-04-24T09:49:26.019Z,9.88
2023-04-24T09:51:53.434Z,10.13
2023-04-24T09:54:23.502Z,10.40
2023-04-24T09:56:51.635Z,10.28
2023-04-24T09:59:20.328Z,10.62
2023-04-24T10:01:49.677Z,10.33
2023-04-24T10:04:21.601Z,10.48
2023-04-24T10:06:50.035Z,10.82
2023-04-24T10:09:22.311Z,10.98
2023-04-24T10:11:51.146Z,11.41
2023-04-24T10:14:21.598Z,11.28
2023-04-24T10:16:49.011Z,11.95
2023-04-24T10:19:16.621Z,12.02
2023-04-24T10:21:47.382Z,12.05
2023-04-24T10:24:18.973Z,11.77
2023-04-24T10:26:46.973Z,11.49
2023-04-24T10:29:16.445Z,11.56
2023-04-24T10:31:46.424Z,11.90
2023-04-24T10:34:15.252Z,12.08
2023-04-24T10:36:47.015Z,12.06
2023-04-24T10:39:16.171Z,11.82
2023-04-24T10:41:42.893Z,11.40
2023-04-24T10:44:15.909Z,11.33
2023-04-24T10:46:49.246Z,11.76
2023-04-24T10:49:15.963Z,11.70
2023-04-24T10:51:54.176Z,11.86
2023-04-24T10:54:25.873Z,12.05
2023-04-24T10:56:53.257Z,11.61
2023-04-24T10:59:27.992Z,11.80
2023-04-24T11:01:58.417Z,10.95
2023-04-24T11:04:32.732Z,11.22
2023-04-24T11:06:59.732Z,11.45
2023-04-24T11:09:32.737Z,11.60
2023-04-24T11:12:11.317Z,11.56
2023-04-24T11:14:56.357Z,11.78
2023-04-24T11:17:34.274Z,12.13
2023-04-24T11:20:25.960Z,12.45
2023-04-24T11:22:56.066Z,12.78
2023-04-24T11:25:24.347Z,13.03
2023-04-24T11:27:51.530Z,12.77
2023-04-24T11:30:20.445Z,12.53
2023-04-24T11:32:52.102Z,12.73
2023-04-24T11:35:22.088Z,12.56
2023-04-24T11:40:26.889Z,12.47
2023-04-24T11:42:56.425Z,12.18
2023-04-24T11:45:26.068Z,11.42
2023-04-24T11:47:52.938Z,11.45
2023-04-24T11:50:22.545Z,11.45
2023-04-24T11:52:50.590Z,11.15
2023-04-24T11:55:17.178Z,11.14
2023-04-24T11:57:45.622Z,10.78
2023-04-24T12:00:26.934Z,10.84
2023-04-24T12:03:07.476Z,10.64
2023-04-24T12:05:35.860Z,9.84
2023-04-24T12:08:02.794Z,10.64
2023-04-24T12:10:31.625Z,10.58
2023-04-24T12:13:00.933Z,10.97
2023-04-24T12:15:28.433Z,11.12
2023-04-24T12:17:56.356Z,11.49
2023-04-24T12:20:29.789Z,11.72
2023-04-24T12:22:58.851Z,11.85
2023-04-24T12:25:33.236Z,12.48
2023-04-24T12:28:06.279Z,12.79
2023-04-24T12:30:40.737Z,12.88
2023-04-24T12:33:07.761Z,13.13
2023-04-24T12:35:35.076Z,13.21
2023-04-24T12:38:15.631Z,13.40
2023-04-24T12:40:43.692Z,12.65
2023-04-24T12:43:20.965Z,11.97
2023-04-24T12:45:49.039Z,11.99
2023-04-24T12:48:15.905Z,11.57
2023-04-24T12:50:46.118Z,11.28
2023-04-24T12:53:13.423Z,10.99
2023-04-24T12:55:40.146Z,10.56
2023-04-24T12:58:06.893Z,10.20
2023-04-24T13:00:34.209Z,10.25
2023-04-24T13:03:02.525Z,9.95
2023-04-24T13:05:29.592Z,10.21
2023-04-24T13:07:56.361Z,9.40
2023-04-24T13:10:23.228Z,11.23
2023-04-24T13:12:50.520Z,13.24
2023-04-24T13:15:17.170Z,14.92
2023-04-24T13:17:43.964Z,15.32
2023-04-24T13:20:10.962Z,14.88
2023-04-24T13:22:38.186Z,14.90
2023-04-24T13:25:07.236Z,15.56
2023-04-24T13:27:34.455Z,16.24
2023-04-24T13:30:01.462Z,16.13
2023-04-24T13:32:29.755Z,15.32
2023-04-24T13:34:57.845Z,14.32
2023-04-24T13:37:24.474Z,14.66
2023-04-24T13:39:52.330Z,16.20
2023-04-24T13:42:19.841Z,16.90
2023-04-24T13:44:46.483Z,17.47
2023-04-24T13:47:13.171Z,17.89
2023-04-24T13:49:40.850Z,18.04
2023-04-24T13:52:08.530Z,17.37
2023-04-24T13:54:35.177Z,16.14
2023-04-24T13:57:03.798Z,14.84
2023-04-24T13:59:30.671Z,14.54
2023-04-24T14:01:57.311Z,13.67
2023-04-24T14:04:24.051Z,13.54
2023-04-24T14:06:51.433Z,13.36
2023-04-24T14:09:18.067Z,12.26
2023-04-24T14:11:44.822Z,12.50
2023-04-24T14:14:11.549Z,12.34
2023-04-24T14:16:38.197Z,12.14
2023-04-24T14:19:06.408Z,11.83
2023-04-24T14:21:33.635Z,11.31
2023-04-24T14:24:00.557Z,10.94
2023-04-24T14:26:28.243Z,10.29
2023-04-24T14:29:04.104Z,10.14
2023-04-24T14:31:40.824Z,9.56
2023-04-24T14:34:07.477Z,10.02
2023-04-24T14:36:34.086Z,9.90
2023-04-24T14:39:00.660Z,10.47
2023-04-24T14:41:27.295Z,10.49
2023-04-24T14:43:53.873Z,10.79
2023-04-24T14:46:21.066Z,10.88
2023-04-24T14:48:48.021Z,11.25
2023-04-24T14:51:15.606Z,11.24
2023-04-24T14:53:42.301Z,11.04
2023-04-24T14:56:09.037Z,12.07
2023-04-24T14:58:35.933Z,12.45
2023-04-24T15:01:05.504Z,12.29
2023-04-24T15:03:33.208Z,12.39
2023-04-24T15:06:00.572Z,12.29
2023-04-24T15:08:27.478Z,12.13
2023-04-24T15:10:54.741Z,11.44
2023-04-24T15:13:21.608Z,10.59
2023-04-24T15:15:51.523Z,9.84
2023-04-24T15:18:18.335Z,9.95
2023-04-24T15:20:45.384Z,9.51
2023-04-24T15:23:12.642Z,9.90
2023-04-24T15:25:39.627Z,9.52
2023-04-24T15:28:06.993Z,9.97
2023-04-24T15:30:33.896Z,10.14
2023-04-24T15:33:02.116Z,10.16
2023-04-24T15:35:31.679Z,10.76
2023-04-24T15:37:58.621Z,11.16
2023-04-24T15:40:25.521Z,11.38
2023-04-24T15:42:52.302Z,11.86
2023-04-24T15:45:20.495Z,14.89
2023-04-24T15:47:47.675Z,16.56
2023-04-24T15:50:16.936Z,15.81
2023-04-24T15:52:44.204Z,14.86
2023-04-24T15:55:11.218Z,13.45
2023-04-24T15:57:37.993Z,14.14
2023-04-24T16:00:10.862Z,14.56
2023-04-24T16:02:41.213Z,14.27
2023-04-24T16:05:08.746Z,13.44
2023-04-24T16:07:36.100Z,12.52
2023-04-24T16:10:02.809Z,12.00
2023-04-24T16:12:29.698Z,11.67
2023-04-24T16:14:56.521Z,11.90
2023-04-24T16:17:23.786Z,11.53
2023-04-24T16:19:50.438Z,12.32
2023-04-24T16:22:17.155Z,13.80
2023-04-24T16:24:44.620Z,15.01
2023-04-24T16:27:11.275Z,15.60
2023-04-24T16:29:37.910Z,15.84
2023-04-24T16:32:04.658Z,16.12
2023-04-24T16:34:31.380Z,15.20
2023-04-24T16:36:58.304Z,14.27
2023-04-24T16:39:25.906Z,14.58
2023-04-24T16:41:59.603Z,14.52
2023-04-24T16:44:26.936Z,14.55
2023-04-24T16:47:19.502Z,13.92
2023-04-24T16:49:46.337Z,14.49
2023-04-24T16:52:15.107Z,14.41
2023-04-24T16:54:42.881Z,14.23
2023-04-24T16:57:11.962Z,13.79
2023-04-24T16:59:38.810Z,13.93
2023-04-24T17:02:09.240Z,13.68
2023-04-24T17:04:36.108Z,12.74
2023-04-24T17:07:03.235Z,12.13
2023-04-24T17:09:30.686Z,11.65
2023-04-24T17:11:57.528Z,11.94
2023-04-24T17:14:26.357Z,11.95
2023-04-24T17:16:53.517Z,12.00
2023-04-24T17:19:21.369Z,12.00
2023-04-24T17:21:48.178Z,12.39
2023-04-24T17:24:14.927Z,12.27
2023-04-24T17:26:41.778Z,12.16
2023-04-24T17:29:08.607Z,12.23
2023-04-24T17:31:35.490Z,12.15
2023-04-24T17:34:02.606Z,11.80
2023-04-24T17:36:29.749Z,12.17
2023-04-24T17:38:56.603Z,12.47
2023-04-24T17:41:23.434Z,12.76
2023-04-24T17:43:50.282Z,12.61
2023-04-24T17:46:17.208Z,12.01
2023-04-24T17:48:44.071Z,11.50
2023-04-24T17:51:10.945Z,11.31
2023-04-24T17:53:37.819Z,10.73
2023-04-24T17:56:04.737Z,10.83
2023-04-24T17:58:31.657Z,10.66
2023-04-24T18:00:58.515Z,10.23
2023-04-24T18:03:25.562Z,10.09
2023-04-24T18:05:52.498Z,10.15
2023-04-24T18:08:19.560Z,10.08
2023-04-24T18:10:46.484Z,10.16
2023-04-24T18:13:13.333Z,9.73
2023-04-24T18:15:43.683Z,9.86
2023-04-24T18:18:11.337Z,9.65
2023-04-24T18:20:38.587Z,9.11
2023-04-24T18:23:05.836Z,9.12
2023-04-24T18:25:32.868Z,9.22
2023-04-24T18:27:59.593Z,9.20
2023-04-24T18:30:26.965Z,8.80
2023-04-24T18:32:53.950Z,8.78
2023-04-24T18:35:21.538Z,8.76
2023-04-24T18:37:48.349Z,8.85
2023-04-24T18:40:15.452Z,8.58
2023-04-24T18:42:42.359Z,8.51
2023-04-24T18:45:10.923Z,8.55
2023-04-24T18:47:39.303Z,8.17
2023-04-24T18:50:14.543Z,8.44
2023-04-24T18:52:41.247Z,8.26
2023-04-24T18:55:09.665Z,8.18
2023-04-24T18:57:36.351Z,8.23
2023-04-24T19:00:04.020Z,8.10
2023-04-24T19:02:30.964Z,7.93
2023-04-24T19:04:57.720Z,7.76
2023-04-24T19:07:24.370Z,7.99
2023-04-24T19:09:50.974Z,8.05
2023-04-24T19:12:17.636Z,7.81
2023-04-24T19:14:46.064Z,8.01
2023-04-24T19:17:12.749Z,7.36
2023-04-24T19:19:39.463Z,7.85
2023-04-24T19:22:07.554Z,7.87
2023-04-24T19:24:34.458Z,7.75
2023-04-24T19:27:01.605Z,7.82
2023-04-24T19:29:28.480Z,7.60
2023-04-24T19:31:55.573Z,7.71
2023-04-24T19:34:22.253Z,7.75
2023-04-24T19:36:48.851Z,7.43
2023-04-24T19:39:16.061Z,7.17
2023-04-24T19:41:42.632Z,7.38
2023-04-24T19:44:10.594Z,7.45
2023-04-24T19:46:37.612Z,7.64
2023-04-24T19:49:04.392Z,7.02
2023-04-24T19:51:32.275Z,7.50
2023-04-24T19:53:59.539Z,7.50
2023-04-24T19:56:26.116Z,7.45
2023-04-24T19:58:52.703Z,7.40
2023-04-24T20:01:19.354Z,6.89
2023-04-24T20:03:46.183Z,7.34
2023-04-24T20:06:12.808Z,7.23
2023-04-24T20:08:39.562Z,7.07
2023-04-24T20:11:06.400Z,6.90
2023-04-24T20:13:33.146Z,7.04
2023-04-24T20:16:00.270Z,6.96
2023-04-24T20:18:27.134Z,7.13
2023-04-24T20:20:56.818Z,7.18
2023-04-24T20:23:23.482Z,7.00
2023-04-24T20:25:50.320Z,7.08
2023-04-24T20:28:18.183Z,7.11
2023-04-24T20:30:45.972Z,6.72
2023-04-24T20:33:12.627Z,6.98
2023-04-24T20:35:39.452Z,7.02
2023-04-24T20:38:06.798Z,6.90
2023-04-24T20:40:35.498Z,7.01
2023-04-24T20:43:04.307Z,6.71
2023-04-24T20:45:31.307Z,6.72
2023-04-24T20:47:58.043Z,7.06
2023-04-24T20:50:25.324Z,6.15
2023-04-24T20:52:52.080Z,7.03
2023-04-24T20:55:18.870Z,7.04
2023-04-24T20:57:45.622Z,7.01
2023-04-24T21:00:13.621Z,6.89
2023-04-24T21:02:40.961Z,6.02
2023-04-24T21:05:08.314Z,7.06
2023-04-24T21:07:35.156Z,6.91
2023-04-24T21:10:02.011Z,7.04
2023-04-24T21:12:28.733Z,6.73
2023-04-24T21:14:55.506Z,6.81
2023-04-24T21:17:22.452Z,6.71
2023-04-24T21:19:49.267Z,6.60
2023-04-24T21:22:16.147Z,6.71
2023-04-24T21:24:42.952Z,6.59
2023-04-24T21:27:09.790Z,6.52
2023-04-24T21:29:37.500Z,6.59
2023-04-24T21:32:04.883Z,6.49
2023-04-24T21:34:58.893Z,6.56
2023-04-24T21:37:28.544Z,6.45
2023-04-24T21:39:55.264Z,6.39
2023-04-24T21:42:21.945Z,6.35
2023-04-24T21:44:48.696Z,6.43
2023-04-24T21:47:15.425Z,6.49
2023-04-24T21:49:42.478Z,6.22
2023-04-24T21:52:09.125Z,6.02
2023-04-24T21:54:35.717Z,6.52
2023-04-24T21:57:02.980Z,6.57
2023-04-24T21:59:30.176Z,6.58
2023-04-24T22:01:57.015Z,6.55
2023-04-24T22:04:23.819Z,6.51
2023-04-24T22:06:53.190Z,6.51
2023-04-24T22:09:19.979Z,6.35
2023-04-24T22:11:46.642Z,6.12
2023-04-24T22:14:14.787Z,6.24
2023-04-24T22:16:41.873Z,6.36
2023-04-24T22:19:08.960Z,6.15
2023-04-24T22:21:35.821Z,6.09
2023-04-24T22:24:02.553Z,5.94
2023-04-24T22:26:29.149Z,6.27
2023-04-24T22:28:55.740Z,5.98
2023-04-24T22:31:23.104Z,6.48
2023-04-24T22:33:51.642Z,6.41
2023-04-24T22:36:18.779Z,6.48
2023-04-24T22:38:45.359Z,6.50
2023-04-24T22:41:12.405Z,6.48
2023-04-24T22:43:39.280Z,6.46
2023-04-24T22:46:06.088Z,6.38
2023-04-24T22:48:34.592Z,6.39
2023-04-24T22:51:01.278Z,6.25
2023-04-24T22:53:28.818Z,6.31
2023-04-24T22:55:58.636Z,5.36
2023-04-24T22:58:25.574Z,5.97
2023-04-24T23:00:52.607Z,5.99
2023-04-24T23:03:19.344Z,5.88
2023-04-24T23:05:46.100Z,5.90
2023-04-24T23:08:12.756Z,5.73
2023-04-24T23:10:39.620Z,5.60
2023-04-24T23:13:06.386Z,5.61
2023-04-24T23:15:33.099Z,5.34
2023-04-24T23:17:59.762Z,4.99
2023-04-24T23:20:26.704Z,5.45
2023-04-24T23:22:53.454Z,5.33
2023-04-24T23:25:20.236Z,4.79
2023-04-24T23:27:47.638Z,5.49
2023-04-24T23:30:14.302Z,5.49
2023-04-24T23:32:40.863Z,5.45
2023-04-24T23:35:08.862Z,5.62
2023-04-24T23:37:36.276Z,5.87
2023-04-24T23:40:03.030Z,5.88
2023-04-24T23:42:29.638Z,6.02
2023-04-24T23:44:56.275Z,6.33
2023-04-24T23:47:22.930Z,6.41
2023-04-24T23:49:49.571Z,6.51
2023-04-24T23:52:16.274Z,6.41
2023-04-24T23:54:42.918Z,6.60
2023-04-24T23:57:09.663Z,6.68
2023-04-24T23:59:37.247Z,6.75
